Pagrindinis puslapis
METAR-TAF:

METAR-TAF

Oro uostai :

Kairas, Egiptas

platuma: 30-08N, ilguma: 031-24E, Aukštis: 64 m

Dabartinis oras

Ataskaita buvo paskelbta 32 minutes, ne 17:00 UTC
Vėjas 7 kt iš Šiaurės/Šiaurės Vakarų
Temperatūra 19°C
Drėgmė 52%
Slėgis 1017 hPa
Matomumas 10 km arba daugiau
Išsisklaidę debesys ne aukštis 2500 ft

METAR: HECA 271700Z 33007KT 9999 SCT025 19/09 Q1017 NOSIG

Laikas: 19:32 (17:32 UTC)

Prognozė

Ataskaita buvo paskelbta 32 minutes, ne 17:00 UTC
Prognozė galioja nuo 27 metu 18 UTC su 28 metu 24 UTC
Vėjas 9 kt iš Šiaurės Vakarų
Matomumas 10 km arba daugiau
Išsisklaidę debesys ne aukštis 2500 ft
Laikinai
nuo 28 metu 00 UTC su 28 metu 07 UTC
Vėjas 5 kt iš Rytų/Šiaurės Rytų
Matomumas: 4000 m
rūkana
Tikimybė 40% :
Laikinai
nuo 28 metu 01 UTC su 28 metu 06 UTC
Matomumas: 1000 m

TAF: HECA 271700Z 2718/2824 32009KT 9999 SCT025 TEMPO 2800/2807 07005KT 4000 BR NSC PROB40 TEMPO 2801/2806 1000

Orai ataskaitas ir orų prognozės (METAR, TAF).

turimą stotys yra geltonos ir raudonos taškus žemėlapyje.

Perkelti pele per norėdami pamatyti stoties vardą.

Tada spustelėkite, norėdami matyti oro stebėjimo ir prognozės.

Norėdami pakeisti žemėlapį: spustelėkite ant žalios mygtukų su juodo kryžiaus žemyn,; žalią mygtuką su brūkšneliu, jei norite nutolinti; arba žalių rodyklių gretimoms žemėlapius.


METAR-TAF: